Brangus — WDB4516 — position and weather

sailwx.info

Track history (hours):
 
Tides and Currents Weather Stations Pressure Air Temp Water Temp Dewpoint Dewpoint Depression Visibility Wind Speed Wind Dir Waves Ship Positions

Brangus

Owner: Great Lakes Dredge & Dock Company, Oak Brook, IL. More information available from US FCC via Universal Licensing System and Coast Guard Vessel Documentation Center.

Last reported at 2016-Sep-23 13:23 UTC. Time now 2016-Sep-25 00:16 UTC.
Position N 40°36' W 073°15'.

; draft 3 m.

MMSI: 366899270.

Date/timePositionNaut miles runAvg speedWind from/ knotsBaromVisibWave heightAir tempDewpointWater temp
2016-Sep-23 13:23N 40°36' W 073°15'2 0.3
2016-Sep-23 06:20N 40°38' W 073°18'0 0.0
2016-Sep-23 04:24N 40°38' W 073°18'0 0.0
2016-Sep-23 03:30N 40°38' W 073°18'0 0.0
2016-Sep-23 02:18N 40°38' W 073°18'28 1.3
2016-Sep-22 04:23N 40°23' W 073°48'3 3.4
2016-Sep-22 03:29N 40°20' W 073°50'13 4.4
2016-Sep-22 00:33N 40°08' W 073°56'4 4.4
2016-Sep-21 23:34N 40°04' W 073°57'5 4.6
2016-Sep-21 22:34N 39°59' W 073°59'13 4.4
2016-Sep-21 19:34N 39°47' W 074°03'11 3.8
2016-Sep-21 16:34N 39°37' W 074°11'13 1.9
2016-Sep-21 09:28N 39°49' W 074°03'5 4.9
2016-Sep-21 08:24N 39°54' W 074°02'  
2016-Sep-18 01:33N 40°38' W 073°17'  
Track history (hours):
 
Tides and Currents Weather Stations Pressure Air Temp Water Temp Dewpoint Dewpoint Depression Visibility Wind Speed Wind Dir Waves Ship Positions

Brangus

Owner: Great Lakes Dredge & Dock Company, Oak Brook, IL. More information available from US FCC via Universal Licensing System and Coast Guard Vessel Documentation Center.

Last reported at 2016-Sep-23 13:23 UTC. Time now 2016-Sep-25 00:16 UTC.
Position N 40°36' W 073°15'.

; draft 3 m.

MMSI: 366899270.

Date/timePositionNaut miles runAvg speedWind from/ knotsBaromVisibWave heightAir tempDewpointWater temp
2016-Sep-23 13:23N 40°36' W 073°15'2 0.3
2016-Sep-23 06:20N 40°38' W 073°18'0 0.0
2016-Sep-23 04:24N 40°38' W 073°18'0 0.0
2016-Sep-23 03:30N 40°38' W 073°18'0 0.0
2016-Sep-23 02:18N 40°38' W 073°18'28 1.3
2016-Sep-22 04:23N 40°23' W 073°48'3 3.4
2016-Sep-22 03:29N 40°20' W 073°50'13 4.4
2016-Sep-22 00:33N 40°08' W 073°56'4 4.4
2016-Sep-21 23:34N 40°04' W 073°57'5 4.6
2016-Sep-21 22:34N 39°59' W 073°59'13 4.4
2016-Sep-21 19:34N 39°47' W 074°03'11 3.8
2016-Sep-21 16:34N 39°37' W 074°11'13 1.9
2016-Sep-21 09:28N 39°49' W 074°03'5 4.9
2016-Sep-21 08:24N 39°54' W 074°02'  
2016-Sep-18 01:33N 40°38' W 073°17'  

Dump ship's entire track history